Time;durP1;ratioP1;P1;durP2;ratioP2;P2;SDS_P1;SDS_P2;PMS_P1;PMS_P2;Temp;Humidity;BMP_temperature;BMP_pressure;BME280_temperature;BME280_humidity;BME280_pressure;Samples;Min_cycle;Max_cycle;Signal;HPM_P1;HPM_P2
2022/03/19 00:02:43;;;;;;;127.10;53.97;;;;;;;;;;10364492;28;20042;-70
2022/03/19 00:07:46;;;;;;;122.53;51.03;;;;;;;;;;10351352;28;20050;-67
2022/03/19 00:12:49;;;;;;;137.55;56.63;;;;;;;;;;10375447;28;20062;-67
2022/03/19 00:17:54;;;;;;;140.48;57.58;;;;;;;;;;10354364;28;20061;-68
2022/03/19 00:22:56;;;;;;;173.20;70.50;;;;;;;;;;10383550;28;20062;-67
2022/03/19 00:28:00;;;;;;;153.38;67.55;;;;;;;;;;10348028;28;20058;-67
2022/03/19 00:33:03;;;;;;;151.27;65.25;;;;;;;;;;10348568;28;20102;-67
2022/03/19 00:38:05;;;;;;;144.57;66.70;;;;;;;;;;10348644;28;20042;-66
2022/03/19 00:43:09;;;;;;;137.20;62.67;;;;;;;;;;10349463;28;20138;-68
2022/03/19 00:48:11;;;;;;;118.85;52.20;;;;;;;;;;10348716;28;20049;-68
2022/03/19 00:53:13;;;;;;;105.15;48.75;;;;;;;;;;10348070;28;20314;-68
2022/03/19 00:58:17;;;;;;;116.70;51.97;;;;;;;;;;10345695;28;20057;-68
2022/03/19 01:03:19;;;;;;;116.20;51.17;;;;;;;;;;10348017;28;20046;-67
2022/03/19 01:08:22;;;;;;;111.00;52.45;;;;;;;;;;10349865;28;20062;-68
2022/03/19 01:13:26;;;;;;;127.43;54.92;;;;;;;;;;10385742;28;20046;-68
2022/03/19 01:18:28;;;;;;;122.25;54.80;;;;;;;;;;10348385;28;20490;-68
2022/03/19 01:23:30;;;;;;;110.07;51.45;;;;;;;;;;10348099;28;20042;-68
2022/03/19 01:28:34;;;;;;;127.05;56.78;;;;;;;;;;10351714;28;20058;-67
2022/03/19 01:33:40;;;;;;;122.00;54.55;;;;;;;;;;10355448;28;20070;-68
2022/03/19 01:38:42;;;;;;;103.82;48.75;;;;;;;;;;10345559;28;20322;-68
2022/03/19 01:43:46;;;;;;;106.15;45.80;;;;;;;;;;10350010;28;20057;-68
2022/03/19 01:48:48;;;;;;;105.18;44.47;;;;;;;;;;10354832;28;20089;-68
2022/03/19 01:53:50;;;;;;;115.60;52.20;;;;;;;;;;10355397;28;20055;-68
2022/03/19 01:58:54;;;;;;;126.80;58.65;;;;;;;;;;10354134;28;20042;-68
2022/03/19 02:03:57;;;;;;;112.30;50.10;;;;;;;;;;10355000;28;20313;-67
2022/03/19 02:09:00;;;;;;;85.50;38.03;;;;;;;;;;10354597;28;20053;-68
2022/03/19 02:14:04;;;;;;;89.55;41.95;;;;;;;;;;10387141;28;20109;-68
2022/03/19 02:19:07;;;;;;;98.03;45.47;;;;;;;;;;10361180;28;20341;-68
2022/03/19 02:29:44;;;;;;;144.70;58.60;;;;;;;;;;10307819;28;20058;-68
2022/03/19 02:34:46;;;;;;;146.52;61.28;;;;;;;;;;10308841;28;20062;-68
2022/03/19 02:39:50;;;;;;;182.70;71.13;;;;;;;;;;10307441;28;20054;-69
2022/03/19 02:44:52;;;;;;;177.05;73.85;;;;;;;;;;10306776;28;20101;-68
2022/03/19 02:49:55;;;;;;;181.63;76.45;;;;;;;;;;10308268;28;20367;-67
2022/03/19 02:54:58;;;;;;;182.73;75.93;;;;;;;;;;10308163;28;20102;-68
2022/03/19 03:00:01;;;;;;;172.88;73.85;;;;;;;;;;10308569;28;20113;-68
2022/03/19 03:05:05;;;;;;;145.55;61.88;;;;;;;;;;10352523;28;20101;-68
2022/03/19 03:10:10;;;;;;;161.85;69.40;;;;;;;;;;10353389;28;20053;-67
2022/03/19 03:15:12;;;;;;;155.45;69.22;;;;;;;;;;10352302;28;20054;-67
2022/03/19 03:20:15;;;;;;;157.35;66.55;;;;;;;;;;10352456;28;20042;-68
2022/03/19 03:25:19;;;;;;;106.57;47.15;;;;;;;;;;10351664;28;20070;-68
2022/03/19 03:30:22;;;;;;;104.20;46.25;;;;;;;;;;10352252;28;20050;-67
2022/03/19 03:35:25;;;;;;;94.82;42.85;;;;;;;;;;10352839;28;20054;-67
2022/03/19 03:40:29;;;;;;;113.60;53.47;;;;;;;;;;10351450;28;20042;-67
2022/03/19 03:45:32;;;;;;;120.45;53.97;;;;;;;;;;10380883;28;20046;-67
2022/03/19 03:50:35;;;;;;;90.72;43.55;;;;;;;;;;10381355;28;20054;-67
2022/03/19 03:55:39;;;;;;;88.45;43.05;;;;;;;;;;10392430;28;20056;-67
2022/03/19 04:00:41;;;;;;;82.85;40.63;;;;;;;;;;10354823;28;20042;-68
2022/03/19 04:05:43;;;;;;;86.15;40.45;;;;;;;;;;10350832;28;20134;-68
2022/03/19 04:10:47;;;;;;;92.30;42.83;;;;;;;;;;10354126;28;20360;-68
2022/03/19 04:15:50;;;;;;;117.45;52.75;;;;;;;;;;10372962;28;20084;-68
2022/03/19 04:20:53;;;;;;;106.15;51.78;;;;;;;;;;10392769;28;20037;-68
2022/03/19 04:25:57;;;;;;;114.95;54.15;;;;;;;;;;10357374;28;20345;-67
2022/03/19 04:31:00;;;;;;;114.60;54.40;;;;;;;;;;10382254;28;20324;-68
2022/03/19 04:41:24;;;;;;;125.82;54.42;;;;;;;;;;10383187;28;20050;-68
2022/03/19 04:46:26;;;;;;;105.15;53.22;;;;;;;;;;10356232;28;20046;-68
2022/03/19 04:51:32;;;;;;;110.82;51.75;;;;;;;;;;10348881;28;20058;-68
2022/03/19 04:56:35;;;;;;;111.28;53.60;;;;;;;;;;10370960;28;20053;-67
2022/03/19 05:01:38;;;;;;;111.50;51.65;;;;;;;;;;10393460;28;20049;-66
2022/03/19 05:06:40;;;;;;;111.00;53.92;;;;;;;;;;10398767;28;20096;-67
2022/03/19 05:11:44;;;;;;;103.65;51.65;;;;;;;;;;10369589;28;20043;-68
2022/03/19 05:16:46;;;;;;;94.93;49.45;;;;;;;;;;10356482;28;20054;-67
2022/03/19 05:21:49;;;;;;;96.97;47.72;;;;;;;;;;10385149;28;20058;-68
2022/03/19 05:26:53;;;;;;;94.22;47.92;;;;;;;;;;10379990;28;20060;-67
2022/03/19 05:31:55;;;;;;;96.32;46.22;;;;;;;;;;10385268;28;20054;-67
2022/03/19 05:36:59;;;;;;;99.35;48.20;;;;;;;;;;10356025;28;20051;-67
2022/03/19 05:42:03;;;;;;;96.57;49.40;;;;;;;;;;10356111;28;20073;-67
2022/03/19 05:47:06;;;;;;;105.60;54.15;;;;;;;;;;10355787;28;20056;-67
2022/03/19 05:52:09;;;;;;;93.38;49.10;;;;;;;;;;10354437;28;20128;-67
2022/03/19 05:57:12;;;;;;;98.22;51.03;;;;;;;;;;10354737;28;20046;-67
2022/03/19 06:02:15;;;;;;;96.47;49.90;;;;;;;;;;10357405;28;20073;-68
2022/03/19 06:07:17;;;;;;;98.18;51.10;;;;;;;;;;10355208;28;20054;-68
2022/03/19 06:12:22;;;;;;;97.55;51.88;;;;;;;;;;10359665;28;20045;-68
2022/03/19 06:17:24;;;;;;;97.03;52.57;;;;;;;;;;10353161;28;20058;-69
2022/03/19 06:22:27;;;;;;;89.95;49.85;;;;;;;;;;10351811;28;20042;-68
2022/03/19 06:27:31;;;;;;;90.80;51.40;;;;;;;;;;10351761;28;20054;-68
2022/03/19 06:32:33;;;;;;;83.77;49.53;;;;;;;;;;10353863;28;20326;-68
2022/03/19 06:37:35;;;;;;;78.38;47.30;;;;;;;;;;10363725;28;20062;-68
2022/03/19 06:42:39;;;;;;;73.60;44.35;;;;;;;;;;10390548;28;20038;-68
2022/03/19 06:47:41;;;;;;;;;;;;;;;;;;10352847;28;20049;-69
2022/03/19 06:52:43;;;;;;;66.00;41.70;;;;;;;;;;10352344;28;19925;-68
2022/03/19 06:57:47;;;;;;;62.47;40.00;;;;;;;;;;10352942;28;20046;-68
2022/03/19 07:02:50;;;;;;;67.30;42.50;;;;;;;;;;10351870;28;20337;-68
2022/03/19 07:07:53;;;;;;;64.32;43.13;;;;;;;;;;10351947;28;20387;-70
2022/03/19 07:12:58;;;;;;;69.45;46.15;;;;;;;;;;10350379;28;20042;-67
2022/03/19 07:18:01;;;;;;;71.35;46.70;;;;;;;;;;10352373;28;20050;-67
2022/03/19 07:23:06;;;;;;;61.10;42.03;;;;;;;;;;10350856;28;20049;-68
2022/03/19 07:28:12;;;;;;;61.17;39.47;;;;;;;;;;10350586;28;20344;-69
2022/03/19 07:33:14;;;;;;;66.50;41.20;;;;;;;;;;10350170;28;20054;-68
2022/03/19 07:38:16;;;;;;;59.10;40.65;;;;;;;;;;10348857;28;20089;-70
2022/03/19 07:43:20;;;;;;;60.67;39.95;;;;;;;;;;10349508;28;20221;-70
2022/03/19 07:48:23;;;;;;;50.70;36.25;;;;;;;;;;10349979;28;20038;-68
2022/03/19 07:53:25;;;;;;;48.80;31.85;;;;;;;;;;10351310;28;20061;-69
2022/03/19 07:58:29;;;;;;;45.60;31.75;;;;;;;;;;10351039;28;20110;-70
2022/03/19 08:03:31;;;;;;;44.10;29.70;;;;;;;;;;10348126;28;20336;-70
2022/03/19 08:08:34;;;;;;;41.42;26.27;;;;;;;;;;10350399;28;20244;-70
2022/03/19 08:13:39;;;;;;;30.52;23.38;;;;;;;;;;10342170;28;20051;-69
2022/03/19 08:18:42;;;;;;;17.95;14.93;;;;;;;;;;10345830;28;20054;-70
2022/03/19 08:23:46;;;;;;;25.63;19.20;;;;;;;;;;10348833;28;20241;-69
2022/03/19 08:28:50;;;;;;;28.58;18.25;;;;;;;;;;10362505;28;20065;-70
2022/03/19 08:33:52;;;;;;;25.95;20.05;;;;;;;;;;10348479;28;20105;-70
2022/03/19 08:44:15;;;;;;;22.23;15.97;;;;;;;;;;10340057;28;20057;-69
2022/03/19 08:49:18;;;;;;;19.33;14.88;;;;;;;;;;10395688;28;20354;-69
2022/03/19 08:54:21;;;;;;;20.63;14.00;;;;;;;;;;10355877;28;20368;-68
2022/03/19 08:59:25;;;;;;;19.08;12.05;;;;;;;;;;10356160;28;20134;-69
2022/03/19 09:04:27;;;;;;;16.38;10.15;;;;;;;;;;10354165;28;20097;-70
2022/03/19 09:09:30;;;;;;;15.55;11.40;;;;;;;;;;10355568;28;20089;-70
2022/03/19 09:14:34;;;;;;;14.48;10.35;;;;;;;;;;10352864;28;20069;-69
2022/03/19 09:19:37;;;;;;;19.88;13.15;;;;;;;;;;10355535;28;20062;-69
2022/03/19 09:24:39;;;;;;;12.27;10.60;;;;;;;;;;10354520;28;20164;-69
2022/03/19 09:29:43;;;;;;;12.18;10.13;;;;;;;;;;10355010;28;20042;-68
2022/03/19 09:34:49;;;;;;;13.90;12.02;;;;;;;;;;10353569;28;20050;-68
2022/03/19 09:39:52;;;;;;;19.05;11.57;;;;;;;;;;10367473;28;20057;-68
2022/03/19 09:44:56;;;;;;;19.33;13.18;;;;;;;;;;10335360;28;20150;-69
2022/03/19 09:49:58;;;;;;;23.67;14.65;;;;;;;;;;10353570;28;20253;-68
2022/03/19 09:55:01;;;;;;;21.92;15.02;;;;;;;;;;10354411;28;20046;-67
2022/03/19 10:00:07;;;;;;;24.75;14.98;;;;;;;;;;10354806;28;20058;-68
2022/03/19 10:10:31;;;;;;;25.23;15.90;;;;;;;;;;10352377;28;20294;-69
2022/03/19 10:15:40;;;;;;;25.83;16.48;;;;;;;;;;10350519;28;20341;-68
2022/03/19 10:20:43;;;;;;;25.00;17.38;;;;;;;;;;10365955;28;20046;-69
2022/03/19 10:25:47;;;;;;;21.35;15.68;;;;;;;;;;10346404;28;20214;-68
2022/03/19 10:30:50;;;;;;;20.08;15.18;;;;;;;;;;10354888;28;20101;-68
2022/03/19 10:36:08;;;;;;;23.60;17.60;;;;;;;;;;10352309;28;20050;-67
2022/03/19 10:41:12;;;;;;;25.70;17.02;;;;;;;;;;10367037;28;20038;-69
2022/03/19 10:46:19;;;;;;;20.38;15.35;;;;;;;;;;10352768;28;20214;-69
2022/03/19 10:51:21;;;;;;;23.27;16.52;;;;;;;;;;10361809;28;20081;-68
2022/03/19 10:56:25;;;;;;;26.35;15.35;;;;;;;;;;10352785;28;20046;-69
2022/03/19 11:01:29;;;;;;;21.35;14.38;;;;;;;;;;10347130;28;20121;-68
2022/03/19 11:06:35;;;;;;;20.70;15.43;;;;;;;;;;10352863;28;20065;-68
2022/03/19 11:11:44;;;;;;;26.02;16.70;;;;;;;;;;10355397;28;20317;-67
2022/03/19 11:17:23;;;;;;;33.50;16.17;;;;;;;;;;10367260;28;20030;-69
2022/03/19 11:22:13;;;;;;;27.08;15.85;;;;;;;;;;10351038;28;20065;-68
2022/03/19 11:27:17;;;;;;;29.33;17.48;;;;;;;;;;10349911;28;20058;-68
2022/03/19 11:32:27;;;;;;;25.15;17.25;;;;;;;;;;10350106;28;20257;-68
2022/03/19 11:38:00;;;;;;;25.92;16.92;;;;;;;;;;10363708;28;20112;-69
2022/03/19 11:43:06;;;;;;;24.25;15.68;;;;;;;;;;10350922;28;20259;-69
2022/03/19 11:48:47;;;;;;;26.58;15.07;;;;;;;;;;10349937;28;20345;-69
2022/03/19 11:53:56;;;;;;;30.20;17.52;;;;;;;;;;10350050;28;20105;-70
2022/03/19 11:59:04;;;;;;;22.08;14.30;;;;;;;;;;10362049;28;20046;-67
2022/03/19 12:04:11;;;;;;;33.47;16.67;;;;;;;;;;10370252;28;20161;-68
2022/03/19 12:09:14;;;;;;;25.20;15.10;;;;;;;;;;10347877;28;20049;-68
2022/03/19 12:14:23;;;;;;;20.77;14.18;;;;;;;;;;10347475;28;20080;-69
2022/03/19 12:19:51;;;;;;;28.45;16.55;;;;;;;;;;10365631;28;20088;-70
2022/03/19 12:25:04;;;;;;;33.22;17.17;;;;;;;;;;10356344;28;20061;-69
2022/03/19 12:30:08;;;;;;;25.10;16.10;;;;;;;;;;10361630;28;20069;-68
2022/03/19 12:35:11;;;;;;;27.27;17.35;;;;;;;;;;10351005;28;20058;-68
2022/03/19 12:40:20;;;;;;;26.85;16.23;;;;;;;;;;10348854;28;20035;-69
2022/03/19 12:45:37;;;;;;;27.88;17.10;;;;;;;;;;10357831;28;20038;-70
2022/03/19 12:50:41;;;;;;;29.05;16.77;;;;;;;;;;10346669;28;20167;-67
2022/03/19 12:55:45;;;;;;;23.35;14.95;;;;;;;;;;10357573;28;20053;-69
2022/03/19 13:00:55;;;;;;;20.93;14.37;;;;;;;;;;10347642;28;20396;-68
2022/03/19 13:05:58;;;;;;;21.73;13.88;;;;;;;;;;10360314;28;20065;-68
2022/03/19 13:11:02;;;;;;;26.85;16.23;;;;;;;;;;10348156;28;20050;-69
2022/03/19 13:16:05;;;;;;;24.30;14.85;;;;;;;;;;10349310;28;20050;-70
2022/03/19 13:21:10;;;;;;;22.95;12.95;;;;;;;;;;10375044;28;20057;-69
2022/03/19 13:26:18;;;;;;;30.83;15.30;;;;;;;;;;10352520;28;20062;-68
2022/03/19 13:31:20;;;;;;;28.15;14.60;;;;;;;;;;10370187;28;20050;-68
2022/03/19 13:36:23;;;;;;;23.65;14.85;;;;;;;;;;10357239;28;20116;-69
2022/03/19 13:41:27;;;;;;;22.42;13.93;;;;;;;;;;10356895;28;20054;-68
2022/03/19 13:46:29;;;;;;;22.20;13.53;;;;;;;;;;10361353;28;20056;-69
2022/03/19 13:51:43;;;;;;;25.15;14.32;;;;;;;;;;10387637;28;20319;-67
2022/03/19 13:56:56;;;;;;;24.25;15.32;;;;;;;;;;10368463;28;20044;-68
2022/03/19 14:02:03;;;;;;;23.77;14.68;;;;;;;;;;10354213;28;20077;-67
2022/03/19 14:07:06;;;;;;;25.02;13.43;;;;;;;;;;10356132;28;20046;-69
2022/03/19 14:12:10;;;;;;;24.75;14.77;;;;;;;;;;10354953;28;20164;-67
2022/03/19 14:17:13;;;;;;;24.25;14.95;;;;;;;;;;10354841;28;20104;-69
2022/03/19 14:22:16;;;;;;;23.23;15.77;;;;;;;;;;10355056;28;20279;-68
2022/03/19 14:27:20;;;;;;;23.98;14.75;;;;;;;;;;10354295;28;20368;-68
2022/03/19 14:32:23;;;;;;;27.07;15.87;;;;;;;;;;10354705;28;20057;-70
2022/03/19 14:37:25;;;;;;;21.33;14.82;;;;;;;;;;10353655;28;20046;-69
2022/03/19 14:42:29;;;;;;;24.02;16.10;;;;;;;;;;10351549;28;20269;-69
2022/03/19 14:47:37;;;;;;;28.23;15.35;;;;;;;;;;10361896;28;20053;-70
2022/03/19 14:52:39;;;;;;;23.98;16.27;;;;;;;;;;10376322;28;20042;-69
2022/03/19 14:57:42;;;;;;;24.77;14.60;;;;;;;;;;10352549;28;20333;-68
2022/03/19 15:02:45;;;;;;;24.13;16.25;;;;;;;;;;10329511;28;20057;-69
2022/03/19 15:07:47;;;;;;;36.65;14.48;;;;;;;;;;10359151;28;20054;-68
2022/03/19 15:12:52;;;;;;;23.25;14.63;;;;;;;;;;10365970;28;20037;-67
2022/03/19 15:17:54;;;;;;;25.30;15.63;;;;;;;;;;10352071;28;20184;-68
2022/03/19 15:22:56;;;;;;;21.27;14.80;;;;;;;;;;10350771;28;20046;-68
2022/03/19 15:28:00;;;;;;;22.95;14.70;;;;;;;;;;10345845;28;20077;-68
2022/03/19 15:33:03;;;;;;;25.02;15.02;;;;;;;;;;10350946;28;20061;-68
2022/03/19 15:38:06;;;;;;;23.55;13.18;;;;;;;;;;10350927;28;20062;-68
2022/03/19 15:43:10;;;;;;;20.95;11.93;;;;;;;;;;10352275;28;20089;-69
2022/03/19 15:48:13;;;;;;;21.48;13.73;;;;;;;;;;10350131;28;20112;-68
2022/03/19 15:53:15;;;;;;;21.75;13.93;;;;;;;;;;10350296;28;20057;-70
2022/03/19 15:58:19;;;;;;;20.02;13.23;;;;;;;;;;10349847;28;20042;-69
2022/03/19 16:03:21;;;;;;;24.38;13.57;;;;;;;;;;10350590;28;20337;-67
2022/03/19 16:08:24;;;;;;;24.65;14.48;;;;;;;;;;10349827;28;20054;-68
2022/03/19 16:13:28;;;;;;;19.52;13.45;;;;;;;;;;10349498;28;20290;-69
2022/03/19 16:18:30;;;;;;;22.40;13.90;;;;;;;;;;10361610;28;20081;-70
2022/03/19 16:23:33;;;;;;;24.92;14.10;;;;;;;;;;10354710;28;20054;-67
2022/03/19 16:28:38;;;;;;;26.85;15.38;;;;;;;;;;10322578;28;20098;-70
2022/03/19 16:33:41;;;;;;;20.95;13.50;;;;;;;;;;10348677;28;20070;-68
2022/03/19 16:38:43;;;;;;;23.00;13.70;;;;;;;;;;10348990;28;20065;-68
2022/03/19 16:43:47;;;;;;;24.23;14.68;;;;;;;;;;10366926;28;20046;-68
2022/03/19 16:48:49;;;;;;;33.17;16.33;;;;;;;;;;10370254;28;20061;-68
2022/03/19 16:53:52;;;;;;;28.70;16.35;;;;;;;;;;10343882;28;20069;-68
2022/03/19 16:58:55;;;;;;;28.27;15.88;;;;;;;;;;10352760;28;20046;-70
2022/03/19 17:03:58;;;;;;;56.28;22.73;;;;;;;;;;10358098;28;20042;-69
2022/03/19 17:09:00;;;;;;;61.97;26.50;;;;;;;;;;10393590;28;20108;-69
2022/03/19 17:14:04;;;;;;;37.60;20.75;;;;;;;;;;10357082;28;20101;-70
2022/03/19 17:19:06;;;;;;;41.05;19.77;;;;;;;;;;10357128;28;20112;-68
2022/03/19 17:24:09;;;;;;;39.40;18.95;;;;;;;;;;10357137;28;20073;-68
2022/03/19 17:29:13;;;;;;;39.50;19.17;;;;;;;;;;10361143;28;20104;-68
2022/03/19 17:34:15;;;;;;;43.75;20.98;;;;;;;;;;10345097;28;20047;-68
2022/03/19 17:39:18;;;;;;;40.60;19.15;;;;;;;;;;10346106;28;20121;-68
2022/03/19 17:44:21;;;;;;;29.52;17.38;;;;;;;;;;10352088;28;20042;-69
2022/03/19 17:49:24;;;;;;;29.60;16.60;;;;;;;;;;10356253;28;20333;-68
2022/03/19 17:54:27;;;;;;;30.65;17.85;;;;;;;;;;10357522;28;20042;-68
2022/03/19 17:59:31;;;;;;;48.17;23.73;;;;;;;;;;10356361;28;20050;-68
2022/03/19 18:04:34;;;;;;;65.75;30.65;;;;;;;;;;10355531;28;20051;-67
2022/03/19 18:09:37;;;;;;;77.53;33.47;;;;;;;;;;10357535;28;20042;-69
2022/03/19 18:14:41;;;;;;;63.45;27.60;;;;;;;;;;10355228;28;20050;-68
2022/03/19 18:19:43;;;;;;;50.10;25.40;;;;;;;;;;10356798;28;20065;-68
2022/03/19 18:24:46;;;;;;;62.80;25.45;;;;;;;;;;10355306;28;20058;-69
2022/03/19 18:29:53;;;;;;;48.15;22.83;;;;;;;;;;10354935;28;20249;-68
2022/03/19 18:34:56;;;;;;;45.90;23.60;;;;;;;;;;10356232;28;20281;-70
2022/03/19 18:39:58;;;;;;;52.47;22.73;;;;;;;;;;10354757;28;20066;-68
2022/03/19 18:45:03;;;;;;;49.45;24.55;;;;;;;;;;10355697;28;20345;-67
2022/03/19 18:50:07;;;;;;;55.37;26.03;;;;;;;;;;10351934;28;20089;-68
2022/03/19 18:55:09;;;;;;;52.08;24.50;;;;;;;;;;10355280;28;20097;-67
2022/03/19 19:00:16;;;;;;;48.53;23.85;;;;;;;;;;10355987;28;20046;-69
2022/03/19 19:05:18;;;;;;;59.35;26.25;;;;;;;;;;10362589;28;20243;-68
2022/03/19 19:10:21;;;;;;;86.70;32.85;;;;;;;;;;10313324;28;20042;-68
2022/03/19 19:15:25;;;;;;;56.17;24.77;;;;;;;;;;10317561;28;20054;-68
2022/03/19 19:20:28;;;;;;;101.65;30.15;;;;;;;;;;10318321;28;20241;-69
2022/03/19 19:25:31;;;;;;;66.05;25.25;;;;;;;;;;10322388;28;20063;-69
2022/03/19 19:30:35;;;;;;;47.38;22.73;;;;;;;;;;10347128;28;20050;-68
2022/03/19 19:35:37;;;;;;;48.60;22.77;;;;;;;;;;10344799;28;20066;-67
2022/03/19 19:40:42;;;;;;;55.50;23.83;;;;;;;;;;10349657;28;20241;-67
2022/03/19 19:45:46;;;;;;;49.35;24.05;;;;;;;;;;10351707;28;20084;-69
2022/03/19 19:50:48;;;;;;;49.20;22.65;;;;;;;;;;10352565;28;20068;-69
2022/03/19 19:55:51;;;;;;;47.42;23.58;;;;;;;;;;10349285;28;20052;-68
2022/03/19 20:00:55;;;;;;;49.78;23.17;;;;;;;;;;10348819;28;20261;-69
2022/03/19 20:05:57;;;;;;;48.47;23.63;;;;;;;;;;10352490;28;20038;-67
2022/03/19 20:11:00;;;;;;;72.45;29.10;;;;;;;;;;10348842;28;20046;-67
2022/03/19 20:16:04;;;;;;;79.75;30.25;;;;;;;;;;10349430;28;20039;-69
2022/03/19 20:21:07;;;;;;;88.53;31.77;;;;;;;;;;10352562;28;20053;-68
2022/03/19 20:26:09;;;;;;;68.05;26.85;;;;;;;;;;10347170;28;20057;-69
2022/03/19 20:31:13;;;;;;;58.22;25.23;;;;;;;;;;10351244;28;20058;-68
2022/03/19 20:36:15;;;;;;;56.50;24.73;;;;;;;;;;10348112;28;20104;-69
2022/03/19 20:41:17;;;;;;;62.50;27.70;;;;;;;;;;10350992;28;20081;-69
2022/03/19 20:46:21;;;;;;;55.35;25.15;;;;;;;;;;10346643;28;20238;-68
2022/03/19 20:51:23;;;;;;;46.17;23.55;;;;;;;;;;10350917;28;20050;-68
2022/03/19 20:56:26;;;;;;;51.08;23.75;;;;;;;;;;10351293;28;20356;-68
2022/03/19 21:01:29;;;;;;;57.97;24.88;;;;;;;;;;10346059;28;20361;-68
2022/03/19 21:06:32;;;;;;;55.15;24.25;;;;;;;;;;10351277;28;20065;-68
2022/03/19 21:11:41;;;;;;;51.65;25.60;;;;;;;;;;10351571;28;20047;-68
2022/03/19 21:16:46;;;;;;;51.90;25.65;;;;;;;;;;10364567;28;20050;-69
2022/03/19 21:21:49;;;;;;;56.83;27.30;;;;;;;;;;10349591;28;20047;-69
2022/03/19 21:26:51;;;;;;;59.45;26.25;;;;;;;;;;10349997;28;20058;-68
2022/03/19 21:31:56;;;;;;;46.63;24.25;;;;;;;;;;10347856;28;20031;-69
2022/03/19 21:36:59;;;;;;;51.67;23.83;;;;;;;;;;10348616;28;20049;-70
2022/03/19 21:42:01;;;;;;;50.33;25.55;;;;;;;;;;10348167;28;20042;-68
2022/03/19 21:47:06;;;;;;;54.92;28.25;;;;;;;;;;10357472;28;20380;-68
2022/03/19 21:52:08;;;;;;;58.35;28.90;;;;;;;;;;10358275;28;20334;-68
2022/03/19 21:57:10;;;;;;;66.78;30.27;;;;;;;;;;10357251;28;20080;-68
2022/03/19 22:02:14;;;;;;;57.33;26.70;;;;;;;;;;10355336;28;20046;-67
2022/03/19 22:07:16;;;;;;;55.25;26.15;;;;;;;;;;10354157;28;20229;-68
2022/03/19 22:12:19;;;;;;;53.92;26.83;;;;;;;;;;10353289;28;20329;-68
2022/03/19 22:17:22;;;;;;;50.10;25.38;;;;;;;;;;10355870;28;20049;-69
2022/03/19 22:22:25;;;;;;;55.88;27.55;;;;;;;;;;10352051;28;20038;-68
2022/03/19 22:27:27;;;;;;;62.88;29.08;;;;;;;;;;10272025;28;25159;-68
2022/03/19 22:32:32;;;;;;;76.22;31.58;;;;;;;;;;10391273;28;20527;-69
2022/03/19 22:37:34;;;;;;;64.35;30.13;;;;;;;;;;10360865;28;20057;-69
2022/03/19 22:42:37;;;;;;;76.25;33.33;;;;;;;;;;10346342;28;20245;-69
2022/03/19 22:47:41;;;;;;;74.25;31.80;;;;;;;;;;10376728;28;20307;-68
2022/03/19 22:52:46;;;;;;;86.00;34.33;;;;;;;;;;10396143;28;20061;-68
2022/03/19 22:57:51;;;;;;;72.60;30.95;;;;;;;;;;10358796;28;20211;-68
2022/03/19 23:02:55;;;;;;;68.07;29.65;;;;;;;;;;10353654;28;20122;-68
2022/03/19 23:07:58;;;;;;;69.63;33.15;;;;;;;;;;10356345;28;20066;-68
2022/03/19 23:13:01;;;;;;;75.25;32.75;;;;;;;;;;10354119;28;20065;-68
2022/03/19 23:18:05;;;;;;;72.00;33.20;;;;;;;;;;10352707;28;20062;-68
2022/03/19 23:23:08;;;;;;;72.13;33.25;;;;;;;;;;10354393;28;20385;-67
2022/03/19 23:28:11;;;;;;;72.43;34.53;;;;;;;;;;10352758;28;20054;-68
2022/03/19 23:33:15;;;;;;;77.22;35.03;;;;;;;;;;10352840;28;20073;-67
2022/03/19 23:38:19;;;;;;;74.03;33.15;;;;;;;;;;10351656;28;20333;-67
2022/03/19 23:43:22;;;;;;;79.35;34.03;;;;;;;;;;10351465;28;20349;-68
2022/03/19 23:48:26;;;;;;;73.47;34.38;;;;;;;;;;10391503;28;20272;-67
2022/03/19 23:53:29;;;;;;;66.00;32.35;;;;;;;;;;10356609;28;20042;-67
2022/03/19 23:58:31;;;;;;;71.78;34.58;;;;;;;;;;10352348;28;20324;-67
